createdAt,value
2019-04-21T00:00:39.846Z,9.07
2019-04-21T00:03:50.117Z,9.03
2019-04-21T00:07:08.691Z,9.37
2019-04-21T00:10:18.468Z,9.23
2019-04-21T00:13:20.485Z,8.03
2019-04-21T00:16:12.012Z,9.23
2019-04-21T00:19:40.518Z,9.00
2019-04-21T00:22:58.782Z,9.00
2019-04-21T00:26:01.983Z,8.47
2019-04-21T00:29:16.578Z,7.90
2019-04-21T00:32:17.935Z,8.80
2019-04-21T00:35:14.038Z,8.37
2019-04-21T00:38:43.718Z,8.00
2019-04-21T00:41:46.470Z,7.63
2019-04-21T00:44:40.075Z,7.47
2019-04-21T00:47:53.142Z,7.23
2019-04-21T00:51:16.936Z,7.23
2019-04-21T00:54:13.420Z,7.20
2019-04-21T00:57:18.035Z,6.73
2019-04-21T01:00:22.897Z,6.40
2019-04-21T01:03:46.240Z,7.17
2019-04-21T01:06:35.300Z,6.60
2019-04-21T01:09:31.685Z,7.07
2019-04-21T01:13:04.381Z,6.40
2019-04-21T01:15:53.046Z,7.00
2019-04-21T01:18:55.259Z,6.50
2019-04-21T01:21:41.146Z,7.40
2019-04-21T01:24:49.100Z,6.83
2019-04-21T01:28:09.950Z,6.63
2019-04-21T01:31:17.422Z,7.00
2019-04-21T01:34:27.083Z,6.93
2019-04-21T01:37:38.502Z,6.97
2019-04-21T01:40:38.112Z,7.10
2019-04-21T01:43:42.757Z,6.87
2019-04-21T01:46:48.057Z,7.80
2019-04-21T01:49:43.129Z,7.53
2019-04-21T01:53:05.260Z,7.33
2019-04-21T01:56:34.699Z,7.93
2019-04-21T01:59:35.250Z,8.07
2019-04-21T02:02:43.674Z,8.93
2019-04-21T02:06:02.726Z,7.77
2019-04-21T02:09:02.140Z,8.73
2019-04-21T02:12:10.593Z,10.00
2019-04-21T02:15:20.269Z,10.03
2019-04-21T02:18:17.076Z,10.30
2019-04-21T02:21:17.829Z,9.13
2019-04-21T02:24:40.007Z,10.87
2019-04-21T02:27:36.614Z,11.47
2019-04-21T02:30:54.412Z,10.83
2019-04-21T02:34:00.303Z,10.20
2019-04-21T02:37:17.668Z,11.13
2019-04-21T02:43:19.154Z,11.00
2019-04-21T02:49:38.103Z,11.23
2019-04-21T02:52:37.781Z,10.97
2019-04-21T02:55:38.245Z,10.17
2019-04-21T02:59:09.915Z,12.63
2019-04-21T03:02:35.172Z,12.23
2019-04-21T03:11:53.392Z,13.37
2019-04-21T03:18:13.020Z,12.17
2019-04-21T03:24:29.435Z,11.53
2019-04-21T03:27:41.146Z,12.33
2019-04-21T03:30:52.949Z,10.97
2019-04-21T03:34:18.501Z,11.23
2019-04-21T03:39:45.547Z,10.30
2019-04-21T03:45:51.485Z,10.63
2019-04-21T03:49:04.887Z,9.97
2019-04-21T04:02:05.895Z,9.60
2019-04-21T04:05:36.357Z,9.77
2019-04-21T04:11:38.072Z,10.50
2019-04-21T04:14:46.158Z,11.07
2019-04-21T04:17:40.079Z,10.87
2019-04-21T04:20:51.205Z,10.60
2019-04-21T04:27:07.939Z,12.33
2019-04-21T04:30:19.747Z,11.63
2019-04-21T04:33:21.037Z,11.60
2019-04-21T04:43:08.615Z,13.37
2019-04-21T04:46:08.116Z,12.30
2019-04-21T04:49:24.028Z,14.13
2019-04-21T04:55:29.226Z,12.77
2019-04-21T05:01:46.610Z,12.80
2019-04-21T05:11:28.364Z,12.93
2019-04-21T05:14:11.619Z,14.43
2019-04-21T05:17:17.533Z,13.67
2019-04-21T05:23:11.747Z,14.00
2019-04-21T05:26:09.822Z,14.67
2019-04-21T05:29:20.514Z,14.97
2019-04-21T05:32:59.971Z,14.10
2019-04-21T05:36:12.937Z,15.93
2019-04-21T05:39:36.241Z,14.80
2019-04-21T05:42:39.930Z,14.93
2019-04-21T05:45:54.911Z,14.10
2019-04-21T05:48:59.776Z,13.97
2019-04-21T05:52:06.690Z,14.63
2019-04-21T05:55:16.657Z,14.00
2019-04-21T05:58:12.069Z,14.63
2019-04-21T06:04:48.190Z,14.20
2019-04-21T06:07:41.030Z,14.40
2019-04-21T06:10:50.841Z,13.73
2019-04-21T06:13:55.012Z,13.57
2019-04-21T06:17:01.505Z,13.37
2019-04-21T06:19:59.919Z,14.30
2019-04-21T06:23:14.809Z,15.10
2019-04-21T06:26:26.881Z,14.93
2019-04-21T06:29:24.024Z,15.80
2019-04-21T06:32:45.967Z,16.10
2019-04-21T06:36:20.094Z,16.50
2019-04-21T06:39:05.142Z,16.27
2019-04-21T06:42:05.312Z,17.20
2019-04-21T06:45:12.006Z,17.07
2019-04-21T06:48:18.450Z,19.17
2019-04-21T06:51:27.344Z,17.03
2019-04-21T06:57:35.525Z,17.97
2019-04-21T07:03:49.086Z,18.53
2019-04-21T07:06:54.720Z,20.43
2019-04-21T07:10:05.182Z,22.30
2019-04-21T07:13:03.644Z,25.07
2019-04-21T07:16:17.595Z,23.53
2019-04-21T07:19:22.119Z,22.20
2019-04-21T07:22:27.376Z,23.30
2019-04-21T07:25:33.230Z,21.77
2019-04-21T07:28:40.360Z,17.07
2019-04-21T07:31:47.129Z,17.07
2019-04-21T07:34:49.457Z,14.43
2019-04-21T07:37:54.139Z,12.60
2019-04-21T07:40:54.267Z,11.20
2019-04-21T07:43:57.100Z,10.57
2019-04-21T07:47:11.774Z,8.83
2019-04-21T07:50:24.142Z,8.10
2019-04-21T07:53:38.567Z,7.90
2019-04-21T07:56:24.428Z,7.70
2019-04-21T08:00:02.741Z,6.60
2019-04-21T08:02:51.176Z,6.67
2019-04-21T08:05:58.868Z,6.33
2019-04-21T08:09:01.074Z,6.40
2019-04-21T08:12:04.131Z,6.00
2019-04-21T08:15:24.957Z,5.50
2019-04-21T08:18:21.648Z,6.27
2019-04-21T08:21:28.289Z,5.73
2019-04-21T08:24:34.708Z,6.00
2019-04-21T08:27:41.690Z,5.23
2019-04-21T08:30:43.114Z,4.80
2019-04-21T08:33:58.388Z,6.10
2019-04-21T08:36:57.473Z,5.13
2019-04-21T08:43:09.341Z,4.43
2019-04-21T08:49:20.394Z,4.17
2019-04-21T08:52:36.237Z,4.13
2019-04-21T08:55:49.686Z,3.90
2019-04-21T08:59:13.853Z,3.57
2019-04-21T09:02:34.013Z,3.20
2019-04-21T09:05:32.109Z,3.70
2019-04-21T09:08:39.379Z,3.70
2019-04-21T09:11:40.523Z,3.30
2019-04-21T09:14:50.500Z,3.30
2019-04-21T09:17:50.238Z,2.90
2019-04-21T09:21:05.991Z,3.03
2019-04-21T09:24:11.443Z,2.47
2019-04-21T09:27:10.056Z,2.80
2019-04-21T09:30:04.888Z,2.63
2019-04-21T09:33:07.664Z,2.37
2019-04-21T09:36:15.241Z,2.33
2019-04-21T09:39:20.726Z,2.57
2019-04-21T09:42:33.298Z,2.30
2019-04-21T09:45:30.718Z,2.07
2019-04-21T09:48:46.612Z,2.27
2019-04-21T09:51:41.731Z,2.20
2019-04-21T09:54:56.461Z,2.30
2019-04-21T09:57:57.012Z,2.27
2019-04-21T10:01:10.797Z,2.03
2019-04-21T10:04:05.699Z,2.50
2019-04-21T10:07:23.616Z,2.00
2019-04-21T10:10:17.226Z,1.53
2019-04-21T10:13:21.625Z,1.97
2019-04-21T10:16:40.620Z,2.40
2019-04-21T10:19:46.254Z,2.40
2019-04-21T10:22:50.920Z,2.27
2019-04-21T10:25:56.711Z,2.03
2019-04-21T10:29:08.626Z,2.33
2019-04-21T10:32:07.135Z,2.53
2019-04-21T10:35:11.422Z,2.60
2019-04-21T10:38:25.923Z,2.87
2019-04-21T10:41:21.695Z,2.50
2019-04-21T10:44:27.231Z,2.80
2019-04-21T10:47:33.039Z,2.67
2019-04-21T10:50:37.444Z,2.70
2019-04-21T10:53:43.225Z,2.23
2019-04-21T10:56:49.042Z,2.13
2019-04-21T10:59:55.894Z,2.53
2019-04-21T11:03:19.161Z,2.07
2019-04-21T11:06:24.471Z,2.47
2019-04-21T11:09:29.838Z,1.90
2019-04-21T11:12:36.515Z,2.40
2019-04-21T11:15:41.225Z,2.10
2019-04-21T11:18:46.067Z,1.90
2019-04-21T11:21:50.516Z,2.00
2019-04-21T11:24:54.771Z,2.27
2019-04-21T11:27:59.161Z,2.33
2019-04-21T11:31:04.845Z,2.00
2019-04-21T11:34:09.303Z,1.90
2019-04-21T11:37:16.336Z,1.90
2019-04-21T11:40:22.122Z,2.10
2019-04-21T11:43:26.783Z,1.53
2019-04-21T11:46:31.084Z,1.77
2019-04-21T11:49:35.276Z,1.70
2019-04-21T11:52:40.806Z,1.30
2019-04-21T11:55:48.513Z,1.47
2019-04-21T11:58:51.900Z,1.80
2019-04-21T12:01:57.268Z,1.33
2019-04-21T12:05:01.751Z,1.23
2019-04-21T12:08:18.926Z,1.00
2019-04-21T12:11:11.999Z,0.80
2019-04-21T12:14:16.366Z,0.80
2019-04-21T12:17:20.740Z,1.13
2019-04-21T12:20:26.342Z,1.10
2019-04-21T12:23:32.431Z,1.00
2019-04-21T12:26:37.872Z,0.80
2019-04-21T12:29:43.913Z,0.80
2019-04-21T12:33:02.236Z,0.90
2019-04-21T12:36:06.999Z,0.90
2019-04-21T12:39:12.812Z,0.80
2019-04-21T12:42:18.542Z,0.87
2019-04-21T12:45:24.039Z,0.93
2019-04-21T12:48:29.680Z,0.67
2019-04-21T12:51:35.403Z,0.53
2019-04-21T12:54:39.921Z,0.67
2019-04-21T12:57:45.412Z,0.87
2019-04-21T13:00:51.968Z,1.20
2019-04-21T13:03:57.443Z,1.03
2019-04-21T13:07:03.564Z,0.90
2019-04-21T13:10:10.443Z,1.20
2019-04-21T13:13:14.874Z,1.23
2019-04-21T13:16:19.367Z,1.37
2019-04-21T13:19:23.717Z,1.10
2019-04-21T13:22:28.086Z,0.90
2019-04-21T13:25:32.364Z,1.33
2019-04-21T13:28:37.632Z,1.03
2019-04-21T13:31:42.546Z,1.20
2019-04-21T13:34:47.752Z,1.40
2019-04-21T13:37:52.421Z,1.50
2019-04-21T13:41:32.554Z,1.13
2019-04-21T13:44:26.864Z,1.17
2019-04-21T13:47:32.483Z,0.87
2019-04-21T13:50:37.337Z,1.20
2019-04-21T13:53:41.937Z,0.90
2019-04-21T13:56:47.268Z,1.00
2019-04-21T13:59:53.044Z,0.80
2019-04-21T14:02:58.750Z,1.07
2019-04-21T14:06:04.413Z,1.20
2019-04-21T14:09:13.692Z,1.10
2019-04-21T14:12:19.203Z,1.00
2019-04-21T14:15:24.215Z,1.20
2019-04-21T14:18:28.898Z,0.90
2019-04-21T14:21:33.754Z,1.07
2019-04-21T14:24:38.701Z,0.90
2019-04-21T14:27:45.785Z,1.00
2019-04-21T14:30:52.538Z,1.00
2019-04-21T14:33:58.085Z,1.20
2019-04-21T14:37:04.432Z,1.07
2019-04-21T14:40:14.085Z,1.40
2019-04-21T14:43:16.426Z,1.10
2019-04-21T14:46:39.441Z,1.10
2019-04-21T14:50:22.334Z,1.20
2019-04-21T14:53:29.676Z,1.07
2019-04-21T14:56:35.495Z,1.30
2019-04-21T14:59:40.059Z,1.30
2019-04-21T15:02:45.555Z,1.30
2019-04-21T15:05:51.434Z,1.30
2019-04-21T15:08:57.146Z,1.23
2019-04-21T15:12:02.476Z,1.20
2019-04-21T15:15:07.728Z,1.00
2019-04-21T15:18:12.552Z,1.23
2019-04-21T15:21:17.464Z,1.20
2019-04-21T15:24:22.452Z,1.33
2019-04-21T15:27:27.488Z,1.20
2019-04-21T15:30:36.550Z,1.30
2019-04-21T15:33:41.217Z,1.20
2019-04-21T15:36:46.232Z,1.37
2019-04-21T15:39:52.998Z,1.23
2019-04-21T15:42:57.762Z,1.57
2019-04-21T15:46:02.602Z,1.13
2019-04-21T15:49:07.091Z,1.30
2019-04-21T15:52:11.687Z,1.20
2019-04-21T15:55:34.932Z,1.20
2019-04-21T15:59:04.332Z,1.47
2019-04-21T16:02:26.622Z,1.40
2019-04-21T16:05:31.079Z,1.50
2019-04-21T16:08:35.410Z,1.80
2019-04-21T16:11:39.815Z,1.43
2019-04-21T16:14:44.749Z,1.50
2019-04-21T16:17:49.081Z,1.40
2019-04-21T16:20:53.695Z,2.30
2019-04-21T16:23:58.402Z,1.87
2019-04-21T16:27:06.434Z,1.60
2019-04-21T16:30:10.051Z,1.73
2019-04-21T16:33:15.888Z,1.63
2019-04-21T16:36:21.497Z,1.57
2019-04-21T16:39:27.263Z,1.77
2019-04-21T16:42:32.160Z,1.80
2019-04-21T16:45:37.048Z,1.67
2019-04-21T16:48:42.014Z,1.50
2019-04-21T16:51:48.236Z,1.87
2019-04-21T16:54:58.353Z,1.77
2019-04-21T16:58:23.928Z,1.80
2019-04-21T17:01:31.277Z,1.63
2019-04-21T17:04:36.327Z,1.73
2019-04-21T17:07:40.972Z,1.73
2019-04-21T17:10:59.188Z,2.17
2019-04-21T17:13:51.937Z,2.07
2019-04-21T17:17:18.089Z,2.07
2019-04-21T17:20:17.447Z,2.17
2019-04-21T17:23:09.521Z,2.23
2019-04-21T17:26:15.151Z,2.67
2019-04-21T17:29:20.909Z,2.43
2019-04-21T17:32:32.170Z,2.30
2019-04-21T17:35:33.226Z,2.87
2019-04-21T17:38:37.733Z,2.80
2019-04-21T17:41:56.279Z,2.77
2019-04-21T17:44:48.221Z,3.53
2019-04-21T17:47:59.740Z,2.87
2019-04-21T17:51:17.311Z,3.50
2019-04-21T17:54:36.549Z,3.50
2019-04-21T17:57:55.726Z,3.43
2019-04-21T18:01:10.802Z,4.00
2019-04-21T18:04:10.800Z,6.63
2019-04-21T18:07:18.990Z,5.70
2019-04-21T18:10:25.751Z,6.40
2019-04-21T18:13:19.512Z,6.90
2019-04-21T18:16:30.385Z,8.00
2019-04-21T18:19:30.982Z,7.83
2019-04-21T18:23:09.598Z,9.17
2019-04-21T18:26:24.710Z,12.40
2019-04-21T18:29:18.374Z,17.23
2019-04-21T18:32:26.373Z,21.77
2019-04-21T18:35:50.866Z,23.37
2019-04-21T18:39:32.517Z,27.70
2019-04-21T18:42:42.126Z,32.23
2019-04-21T18:46:21.961Z,37.47
2019-04-21T18:49:24.932Z,36.20
2019-04-21T18:52:48.349Z,34.10
2019-04-21T18:55:46.583Z,35.83
2019-04-21T18:58:46.650Z,32.77
2019-04-21T19:01:58.406Z,30.80
2019-04-21T19:05:04.449Z,28.40
2019-04-21T19:08:20.259Z,28.07
2019-04-21T19:11:31.201Z,29.77
2019-04-21T19:14:36.171Z,31.77
2019-04-21T19:20:56.967Z,34.23
2019-04-21T19:24:08.528Z,34.73
2019-04-21T19:27:08.015Z,34.63
2019-04-21T19:33:14.500Z,32.63
2019-04-21T19:36:07.627Z,31.20
2019-04-21T19:39:23.398Z,31.90
2019-04-21T19:42:30.667Z,31.97
2019-04-21T19:45:36.793Z,28.53
2019-04-21T19:48:55.287Z,27.30
2019-04-21T19:51:48.489Z,25.27
2019-04-21T19:54:48.317Z,25.43
2019-04-21T19:57:52.798Z,24.13
2019-04-21T20:00:57.597Z,27.60
2019-04-21T20:04:02.847Z,30.13
2019-04-21T20:07:22.901Z,32.93
2019-04-21T20:10:35.226Z,36.90
2019-04-21T20:13:59.821Z,41.23
2019-04-21T20:16:46.922Z,40.73
2019-04-21T20:19:34.069Z,35.13
2019-04-21T20:22:43.294Z,32.47
2019-04-21T20:25:49.858Z,30.00
2019-04-21T20:29:04.562Z,28.40
2019-04-21T20:32:28.952Z,28.23
2019-04-21T20:35:36.013Z,26.20
2019-04-21T20:38:27.132Z,24.50
2019-04-21T20:41:32.500Z,22.97
2019-04-21T20:44:42.559Z,22.93
2019-04-21T20:47:39.423Z,23.47
2019-04-21T20:51:00.337Z,21.33
2019-04-21T20:53:59.015Z,21.53
2019-04-21T20:57:21.712Z,19.90
2019-04-21T21:00:13.384Z,18.73
2019-04-21T21:03:24.632Z,19.00
2019-04-21T21:06:26.108Z,17.20
2019-04-21T21:09:29.328Z,18.17
2019-04-21T21:12:46.746Z,19.30
2019-04-21T21:15:52.602Z,17.30
2019-04-21T21:19:08.427Z,18.03
2019-04-21T21:21:53.968Z,17.60
2019-04-21T21:25:03.819Z,17.40
2019-04-21T21:28:03.419Z,16.73
2019-04-21T21:31:16.442Z,16.33
2019-04-21T21:34:28.095Z,17.33
2019-04-21T21:37:32.261Z,17.20
2019-04-21T21:40:29.969Z,17.67
2019-04-21T21:43:24.774Z,16.27
2019-04-21T21:46:44.179Z,16.13
2019-04-21T21:49:48.360Z,17.20
2019-04-21T21:52:52.467Z,18.70
2019-04-21T21:55:46.849Z,19.60
2019-04-21T21:58:51.967Z,19.33
2019-04-21T22:01:58.330Z,20.00
2019-04-21T22:05:09.471Z,20.13
2019-04-21T22:08:10.285Z,20.93
2019-04-21T22:11:15.864Z,20.87
2019-04-21T22:14:26.910Z,21.23
2019-04-21T22:17:41.705Z,21.30
2019-04-21T22:20:50.510Z,21.23
2019-04-21T22:23:49.872Z,22.00
2019-04-21T22:26:45.256Z,22.83
2019-04-21T22:29:56.525Z,22.63
2019-04-21T22:33:02.459Z,23.90
2019-04-21T22:36:18.177Z,23.97
2019-04-21T22:39:30.714Z,24.03
2019-04-21T22:42:22.406Z,24.60
2019-04-21T22:45:23.144Z,24.73
2019-04-21T22:48:28.885Z,24.17
2019-04-21T22:51:38.356Z,24.50
2019-04-21T22:54:42.768Z,22.93
2019-04-21T22:57:49.821Z,22.43
2019-04-21T23:00:57.118Z,23.60
2019-04-21T23:04:02.531Z,22.97
2019-04-21T23:07:10.055Z,23.80
2019-04-21T23:10:11.605Z,23.53
2019-04-21T23:13:20.258Z,22.13
2019-04-21T23:16:29.276Z,24.43
2019-04-21T23:19:42.276Z,22.93
2019-04-21T23:23:03.602Z,23.47
2019-04-21T23:25:53.115Z,23.33
2019-04-21T23:29:07.536Z,22.43
2019-04-21T23:32:10.705Z,22.53
2019-04-21T23:35:09.080Z,22.83
2019-04-21T23:38:06.901Z,23.40
2019-04-21T23:41:11.320Z,22.73
2019-04-21T23:44:19.022Z,22.73
2019-04-21T23:47:34.564Z,22.77
2019-04-21T23:50:37.859Z,21.30
2019-04-21T23:53:33.614Z,22.40
2019-04-21T23:56:42.560Z,22.03
2019-04-21T23:59:48.699Z,21.50
